createdAt,value
2023-04-12T00:00:57.812Z,4.42
2023-04-12T00:03:54.526Z,4.86
2023-04-12T00:06:49.924Z,5.38
2023-04-12T00:09:45.493Z,4.24
2023-04-12T00:12:41.056Z,4.5
2023-04-12T00:15:37.646Z,4.26
2023-04-12T00:18:33.136Z,3.44
2023-04-12T00:21:29.727Z,7.220000000000001
2023-04-12T00:24:26.278Z,4.08
2023-04-12T00:27:21.850Z,3.8599999999999994
2023-04-12T00:30:17.434Z,2
2023-04-12T00:33:14.945Z,2.66
2023-04-12T00:39:17.061Z,3.6599999999999993
2023-04-12T00:42:12.630Z,11.459999999999999
2023-04-12T00:45:09.192Z,4.0200000000000005
2023-04-12T00:48:07.734Z,2.64
2023-04-12T00:51:04.308Z,3.1
2023-04-12T00:54:00.819Z,3.3599999999999994
2023-04-12T00:57:00.405Z,11.32
2023-04-12T00:59:55.964Z,9.919999999999998
2023-04-12T01:06:00.011Z,9.440000000000001
2023-04-12T01:09:03.630Z,7.720000000000001
2023-04-12T01:12:09.149Z,4.540000000000001
2023-04-12T01:15:09.654Z,5.24
2023-04-12T01:18:13.183Z,4.86
2023-04-12T01:21:18.775Z,7.12
2023-04-12T01:24:23.281Z,13.76
2023-04-12T01:27:29.829Z,4.6
2023-04-12T01:30:28.370Z,9.4
2023-04-12T01:33:30.930Z,7.3
2023-04-12T01:36:27.495Z,6.279999999999999
2023-04-12T01:39:24.022Z,4.540000000000001
2023-04-12T01:42:20.575Z,2.8200000000000003
2023-04-12T01:45:16.160Z,4.0600000000000005
2023-04-12T01:48:11.800Z,1.6199999999999999
2023-04-12T01:51:18.263Z,4.44
2023-04-12T01:54:22.782Z,3.3600000000000003
2023-04-12T01:57:23.310Z,3.2
2023-04-12T02:00:20.894Z,2.66
2023-04-12T02:03:17.589Z,2.7199999999999998
2023-04-12T02:06:14.024Z,1.8800000000000001
2023-04-12T02:09:09.590Z,6.7
2023-04-12T02:12:07.103Z,4.08
2023-04-12T02:15:03.726Z,3.12
2023-04-12T02:18:03.345Z,3.9799999999999995
2023-04-12T02:21:00.795Z,3.9599999999999995
2023-04-12T02:23:56.598Z,4.58
2023-04-12T02:26:55.933Z,3.7599999999999993
2023-04-12T02:29:51.454Z,4.4
2023-04-12T02:35:52.621Z,3.78
2023-04-12T02:41:54.646Z,2.94
2023-04-12T02:44:50.230Z,1.36
2023-04-12T02:47:45.880Z,1.3399999999999999
2023-04-12T02:50:41.310Z,2.38
2023-04-12T02:53:36.890Z,2.3600000000000003
2023-04-12T02:56:35.459Z,1.92
2023-04-12T02:59:32.042Z,1.2399999999999998
2023-04-12T03:02:27.710Z,1.44
2023-04-12T03:08:28.674Z,2.0200000000000005
2023-04-12T03:14:29.783Z,1.6400000000000001
2023-04-12T03:17:25.348Z,2.7
2023-04-12T03:20:23.897Z,3.4
2023-04-12T03:23:20.483Z,9.6
2023-04-12T03:26:20.012Z,3.46
2023-04-12T03:29:17.537Z,3.6
2023-04-12T03:32:13.076Z,1.4
2023-04-12T03:38:16.211Z,1.72
2023-04-12T03:41:11.746Z,2.48
2023-04-12T03:44:08.278Z,1.06
2023-04-12T03:47:03.907Z,1.58
2023-04-12T03:53:01.979Z,2.2399999999999998
2023-04-12T03:55:57.540Z,5.04
2023-04-12T04:01:59.713Z,2.58
2023-04-12T04:04:55.259Z,2.92
2023-04-12T04:07:51.783Z,2.2199999999999998
2023-04-12T04:10:47.348Z,2.66
2023-04-12T04:16:49.424Z,1.3
2023-04-12T04:19:44.975Z,2.7600000000000007
2023-04-12T04:22:47.514Z,2.88
2023-04-12T04:25:47.072Z,3.8
2023-04-12T04:28:44.631Z,6.76
2023-04-12T04:31:46.317Z,11.320000000000002
2023-04-12T04:34:43.798Z,6.2
2023-04-12T04:37:41.299Z,4.24
2023-04-12T04:40:39.865Z,2.98
2023-04-12T04:43:39.432Z,3.62
2023-04-12T04:46:38.070Z,2.06
2023-04-12T04:49:33.532Z,3.0199999999999996
2023-04-12T04:52:29.066Z,2.9
2023-04-12T04:55:29.665Z,5.16
2023-04-12T04:58:25.230Z,8.280000000000001
2023-04-12T05:01:25.870Z,6.4799999999999995
2023-04-12T05:04:21.347Z,2.88
2023-04-12T05:07:17.839Z,2.2800000000000002
2023-04-12T05:10:13.419Z,2.22
2023-04-12T05:13:09.997Z,2.94
2023-04-12T05:16:07.546Z,4.1
2023-04-12T05:19:03.119Z,3
2023-04-12T05:21:58.671Z,1.92
2023-04-12T05:24:54.249Z,4.64
2023-04-12T05:27:52.201Z,2.8400000000000003
2023-04-12T05:30:47.402Z,4.139999999999999
2023-04-12T05:33:44.884Z,3.6599999999999993
2023-04-12T05:36:40.484Z,3.5200000000000005
2023-04-12T05:39:35.983Z,4.840000000000001
2023-04-12T05:45:38.152Z,5.14
2023-04-12T05:48:33.704Z,6.720000000000001
2023-04-12T05:51:40.419Z,5.4399999999999995
2023-04-12T05:54:29.796Z,5.180000000000001
2023-04-12T05:57:26.346Z,5.34
2023-04-12T06:00:22.942Z,4.4799999999999995
2023-04-12T06:03:19.567Z,2.6399999999999997
2023-04-12T06:06:15.067Z,3.02
2023-04-12T06:09:10.579Z,4.08
2023-04-12T06:12:06.180Z,3.2199999999999998
2023-04-12T06:15:01.742Z,3.46
2023-04-12T06:21:02.806Z,3.34
2023-04-12T06:23:58.356Z,4.640000000000001
2023-04-12T06:26:53.946Z,4.34
2023-04-12T06:32:55.025Z,6.12
2023-04-12T06:35:51.594Z,7.68
2023-04-12T06:38:51.210Z,3.2600000000000002
2023-04-12T06:41:47.689Z,19.04
2023-04-12T06:44:43.220Z,6.56
2023-04-12T06:47:40.848Z,19.48
2023-04-12T06:50:39.388Z,4.72
2023-04-12T06:53:35.895Z,2.92
2023-04-12T06:56:36.453Z,11.6
2023-04-12T06:59:32.005Z,13.74
2023-04-12T07:02:27.671Z,15.860000000000003
2023-04-12T07:05:24.299Z,4.38
2023-04-12T07:08:19.708Z,7.88
2023-04-12T07:11:21.517Z,3.06
2023-04-12T07:14:17.033Z,5.84
2023-04-12T07:17:12.361Z,8.940000000000001
2023-04-12T07:20:09.986Z,5.88
2023-04-12T07:23:05.490Z,4.659999999999999
2023-04-12T07:29:07.776Z,7.4799999999999995
2023-04-12T07:35:08.752Z,10.959999999999997
2023-04-12T07:38:04.245Z,16.800000000000004
2023-04-12T07:40:59.792Z,10.9
2023-04-12T07:43:56.494Z,4.5600000000000005
2023-04-12T07:46:51.947Z,3.9200000000000004
2023-04-12T07:49:47.501Z,6.720000000000001
2023-04-12T07:52:43.032Z,4.78
2023-04-12T07:55:38.614Z,5.959999999999999
2023-04-12T07:58:34.159Z,4.359999999999999
2023-04-12T08:01:30.754Z,3.7400000000000007
2023-04-12T08:04:28.524Z,9.62
2023-04-12T08:07:23.835Z,5.0600000000000005
2023-04-12T08:10:19.378Z,6.260000000000001
2023-04-12T08:13:15.981Z,5.779999999999999
2023-04-12T08:16:12.560Z,3.3600000000000003
2023-04-12T08:19:08.088Z,2.92
2023-04-12T08:22:03.673Z,4.68
2023-04-12T08:24:59.239Z,10.7
2023-04-12T08:27:54.823Z,7.94
2023-04-12T08:30:51.399Z,4.260000000000001
2023-04-12T08:33:46.888Z,8.94
2023-04-12T08:36:42.474Z,9.48
2023-04-12T08:39:38.039Z,7.76
2023-04-12T08:42:37.604Z,5.84
2023-04-12T08:45:37.158Z,6.14
2023-04-12T08:48:35.719Z,3
2023-04-12T08:51:32.201Z,9.02
2023-04-12T08:54:28.772Z,4.540000000000001
2023-04-12T08:57:25.373Z,3.66
2023-04-12T09:00:21.916Z,2.1399999999999997
2023-04-12T09:03:21.954Z,4.0200000000000005
2023-04-12T09:06:18.039Z,2.9799999999999995
2023-04-12T09:09:28.536Z,3.8
2023-04-12T09:12:30.110Z,3.0199999999999996
2023-04-12T09:15:34.669Z,3.8
2023-04-12T09:18:41.146Z,3.7
2023-04-12T09:21:51.710Z,3.78
2023-04-12T09:24:49.280Z,5.82
2023-04-12T09:27:48.154Z,6.34
2023-04-12T09:30:44.344Z,5.819999999999999
2023-04-12T09:33:43.939Z,6.5
2023-04-12T09:36:44.485Z,3.46
2023-04-12T09:39:41.054Z,6.26
2023-04-12T09:42:43.587Z,4.5200000000000005
2023-04-12T09:45:45.157Z,5.279999999999999
2023-04-12T09:48:49.711Z,4.1
2023-04-12T09:51:51.201Z,3.2199999999999998
2023-04-12T09:54:47.756Z,1.9600000000000002
2023-04-12T09:57:45.357Z,2.96
2023-04-12T10:00:44.891Z,3.7800000000000002
2023-04-12T10:03:40.591Z,3.96
2023-04-12T10:06:36.983Z,2.06
2023-04-12T10:09:38.547Z,2.9200000000000004
2023-04-12T10:12:36.097Z,2.1
2023-04-12T10:15:34.680Z,1.72
2023-04-12T10:18:31.214Z,3.3400000000000007
2023-04-12T10:21:26.734Z,3.2400000000000007
2023-04-12T10:24:23.336Z,3.8200000000000003
2023-04-12T10:27:24.832Z,2.3600000000000003
2023-04-12T10:30:22.486Z,3.8
2023-04-12T10:33:19.089Z,1.5399999999999998
2023-04-12T10:36:27.534Z,4.46
2023-04-12T10:39:36.019Z,3.1
2023-04-12T10:42:41.610Z,5.96
2023-04-12T10:45:42.134Z,5.34
2023-04-12T10:48:38.677Z,2.1800000000000006
2023-04-12T10:51:55.194Z,2.82
2023-04-12T10:55:08.741Z,2.12
2023-04-12T10:58:20.294Z,18.96
2023-04-12T11:01:27.918Z,4.92
2023-04-12T11:04:29.380Z,5.22
2023-04-12T11:07:32.876Z,8.180000000000001
2023-04-12T11:10:29.389Z,3.2199999999999998
2023-04-12T11:13:28.028Z,4.26
2023-04-12T11:16:25.569Z,1.14
2023-04-12T11:19:23.073Z,3.8200000000000003
2023-04-12T11:22:20.660Z,3.7
2023-04-12T11:25:18.194Z,4.62
2023-04-12T11:28:27.830Z,3.12
2023-04-12T11:31:22.359Z,3.3600000000000003
2023-04-12T11:34:18.856Z,5.88
2023-04-12T11:37:14.384Z,4.56
2023-04-12T11:40:12.074Z,1.8199999999999998
2023-04-12T11:43:07.474Z,2.6800000000000006
2023-04-12T11:46:04.179Z,4.18
2023-04-12T11:49:00.657Z,4.2
2023-04-12T11:52:03.179Z,1.6600000000000001
2023-04-12T11:55:00.714Z,2.44
2023-04-12T11:58:00.309Z,4.62
2023-04-12T12:00:57.825Z,2.64
2023-04-12T12:03:54.979Z,1.86
2023-04-12T12:06:51.354Z,1.5999999999999999
2023-04-12T12:09:46.530Z,1.7
2023-04-12T12:12:45.116Z,4.140000000000001
2023-04-12T12:15:44.674Z,2.2
2023-04-12T12:18:41.182Z,2.1399999999999997
2023-04-12T12:21:39.762Z,7.359999999999999
2023-04-12T12:24:39.800Z,2.62
2023-04-12T12:30:44.398Z,1.78
2023-04-12T12:33:46.338Z,2.4800000000000004
2023-04-12T12:36:41.497Z,3.38
2023-04-12T12:39:40.107Z,3.2399999999999998
2023-04-12T12:42:42.628Z,5.5200000000000005
2023-04-12T12:45:40.149Z,3.0800000000000005
2023-04-12T12:48:38.782Z,1.8800000000000001
2023-04-12T12:51:34.228Z,2.7800000000000002
2023-04-12T12:54:40.082Z,2.64
2023-04-12T12:57:31.375Z,2.84
2023-04-12T13:00:27.966Z,3.08
2023-04-12T13:03:23.710Z,4.5200000000000005
2023-04-12T13:06:19.028Z,2.7800000000000002
2023-04-12T13:09:14.576Z,2.28
2023-04-12T13:12:11.238Z,2.46
2023-04-12T13:21:14.786Z,8.940000000000001
2023-04-12T13:24:11.404Z,6.220000000000001
2023-04-12T13:27:18.111Z,3.4199999999999995
2023-04-12T13:30:13.475Z,3.8600000000000008
2023-04-12T13:33:09.153Z,7.68
2023-04-12T13:36:05.604Z,3.3600000000000003
2023-04-12T13:39:01.146Z,6.880000000000001
2023-04-12T13:41:57.703Z,1.72
2023-04-12T13:44:53.249Z,4
2023-04-12T13:47:49.932Z,3.5799999999999996
2023-04-12T13:50:45.889Z,2.94
2023-04-12T13:53:41.948Z,2.9200000000000004
2023-04-12T13:56:37.521Z,2.68
2023-04-12T13:59:34.096Z,1.6199999999999999
2023-04-12T14:02:31.326Z,7.380000000000001
2023-04-12T14:05:28.216Z,2.8800000000000003
2023-04-12T14:08:23.746Z,2
2023-04-12T14:11:23.300Z,2.46
2023-04-12T14:14:18.885Z,2.44
2023-04-12T14:17:14.416Z,3.04
2023-04-12T14:20:09.996Z,3.4799999999999995
2023-04-12T14:23:07.357Z,1.98
2023-04-12T14:26:03.100Z,2.28
2023-04-12T14:29:02.680Z,3.72
2023-04-12T14:31:58.193Z,2.2800000000000002
2023-04-12T14:34:53.775Z,4.56
2023-04-12T14:37:49.343Z,2.3
2023-04-12T14:40:44.923Z,1.9
2023-04-12T14:43:40.462Z,3.16
2023-04-12T14:46:36.043Z,6.080000000000001
2023-04-12T14:49:33.445Z,2.68
2023-04-12T14:52:29.124Z,1.98
2023-04-12T14:55:25.697Z,2.62
2023-04-12T14:58:21.224Z,2.1
2023-04-12T15:01:17.847Z,1.28
2023-04-12T15:04:13.550Z,4.9
2023-04-12T15:07:13.935Z,5.82
2023-04-12T15:10:13.513Z,4.4399999999999995
2023-04-12T15:13:08.993Z,3.2600000000000002
2023-04-12T15:16:05.715Z,3.56
2023-04-12T15:19:06.923Z,3.3600000000000003
2023-04-12T15:22:03.763Z,4.46
2023-04-12T15:25:02.284Z,3.6
2023-04-12T15:27:57.826Z,4
2023-04-12T15:30:56.389Z,4.7
2023-04-12T15:33:51.963Z,8.719999999999999
2023-04-12T15:36:49.602Z,9.24
2023-04-12T15:39:46.073Z,7.619999999999999
2023-04-12T15:42:43.624Z,6.44
2023-04-12T15:45:44.204Z,4.8
2023-04-12T15:48:39.725Z,7.9799999999999995
2023-04-12T15:51:35.271Z,7.5
2023-04-12T15:54:31.842Z,10.819999999999999
2023-04-12T15:57:27.421Z,8.42
2023-04-12T16:00:26.035Z,5.720000000000001
2023-04-12T16:03:27.006Z,11.959999999999999
2023-04-12T16:06:25.092Z,6.58
2023-04-12T16:09:22.615Z,7.9799999999999995
2023-04-12T16:12:20.198Z,9.219999999999999
2023-04-12T16:15:16.723Z,11.46
2023-04-12T16:18:12.351Z,7.0200000000000005
2023-04-12T16:21:09.842Z,11.06
2023-04-12T16:24:06.423Z,8.9
2023-04-12T16:27:02.006Z,6.9
2023-04-12T16:29:59.534Z,8.18
2023-04-12T16:32:55.125Z,8.059999999999999
2023-04-12T16:35:56.647Z,11.22
2023-04-12T16:38:55.564Z,10.580000000000002
2023-04-12T16:41:51.762Z,6.779999999999999
2023-04-12T16:44:48.273Z,16.740000000000002
2023-04-12T16:47:45.950Z,10.18
2023-04-12T16:50:47.469Z,11.48
2023-04-12T16:53:44.992Z,9.4
2023-04-12T16:56:41.545Z,16.500000000000004
2023-04-12T16:59:42.103Z,20.2
2023-04-12T17:02:40.830Z,23.98
2023-04-12T17:05:38.187Z,28.740000000000002
2023-04-12T17:08:37.726Z,41.120000000000005
2023-04-12T17:11:36.290Z,57.82000000000001
2023-04-12T17:14:32.883Z,66.34
2023-04-12T17:17:29.413Z,45.620000000000005
2023-04-12T17:20:26.954Z,38.54
2023-04-12T17:23:24.523Z,68.80000000000001
2023-04-12T17:26:25.091Z,42.21999999999999
2023-04-12T17:32:29.286Z,12.76
2023-04-12T17:35:27.721Z,13.180000000000001
2023-04-12T17:38:23.282Z,18.6
2023-04-12T17:41:23.807Z,35
2023-04-12T17:44:19.389Z,18.32
2023-04-12T17:47:15.939Z,31.160000000000004
2023-04-12T17:50:12.550Z,22.340000000000003
2023-04-12T17:53:08.061Z,16.96
2023-04-12T17:56:05.669Z,23.8
2023-04-12T17:59:02.201Z,42.36
2023-04-12T18:01:59.857Z,63.94000000000001
2023-04-12T18:04:55.313Z,90.03999999999999
2023-04-12T18:07:50.863Z,182.5
2023-04-12T18:10:48.376Z,179.64000000000001
2023-04-12T18:13:43.995Z,215.47999999999996
2023-04-12T18:16:40.550Z,227.94
2023-04-12T18:19:37.080Z,228.66000000000003
2023-04-12T18:22:32.665Z,232.98000000000002
2023-04-12T18:25:28.197Z,206.84
2023-04-12T18:28:24.806Z,293.67999999999995
2023-04-12T18:31:22.414Z,307.9
2023-04-12T18:34:18.886Z,403.34000000000003
2023-04-12T18:37:15.453Z,368.41999999999996
2023-04-12T18:40:13.041Z,301.38
2023-04-12T18:43:08.593Z,374.7
2023-04-12T18:46:05.206Z,376.62
2023-04-12T18:49:03.671Z,396.08000000000004
2023-04-12T18:51:59.254Z,358.23999999999995
2023-04-12T18:54:54.800Z,336.76000000000005
2023-04-12T18:57:50.342Z,329.41999999999996
2023-04-12T19:00:46.008Z,303.18
2023-04-12T19:03:42.540Z,294.64
2023-04-12T19:06:38.261Z,311.38
2023-04-12T19:09:35.613Z,318.94
2023-04-12T19:12:32.188Z,298.48
2023-04-12T19:15:28.736Z,317.76
2023-04-12T19:18:26.336Z,322.2
2023-04-12T19:21:21.845Z,336.7
2023-04-12T19:24:17.443Z,417.08000000000004
2023-04-12T19:27:17.916Z,427.18
2023-04-12T19:30:14.503Z,358.28000000000003
2023-04-12T19:33:11.048Z,235.95999999999998
2023-04-12T19:36:08.653Z,156
2023-04-12T19:39:05.146Z,86.18
2023-04-12T19:42:02.770Z,38.38000000000001
2023-04-12T19:45:00.310Z,23.96
2023-04-12T19:47:56.906Z,17.740000000000002
2023-04-12T19:50:54.424Z,11.48
2023-04-12T19:53:53.966Z,10.059999999999999
2023-04-12T19:56:49.536Z,11.96
2023-04-12T19:59:46.106Z,11
2023-04-12T20:02:42.665Z,12.64
2023-04-12T20:05:42.188Z,13.8
2023-04-12T20:08:38.769Z,12.419999999999998
2023-04-12T20:11:35.366Z,12.720000000000002
2023-04-12T20:14:34.854Z,14.16
2023-04-12T20:17:31.490Z,15.26
2023-04-12T20:20:26.994Z,19.2
2023-04-12T20:23:24.545Z,15.639999999999997
2023-04-12T20:26:21.122Z,19.360000000000003
2023-04-12T20:29:17.690Z,15.74
2023-04-12T20:32:14.249Z,20.580000000000002
2023-04-12T20:35:11.798Z,18.52
2023-04-12T20:38:07.326Z,19.5
2023-04-12T20:41:04.911Z,20.919999999999998
2023-04-12T20:44:01.542Z,13.2
2023-04-12T20:46:59.070Z,14.979999999999999
2023-04-12T20:49:59.560Z,12.059999999999999
2023-04-12T20:52:56.140Z,11.36
2023-04-12T20:55:54.696Z,14.959999999999999
2023-04-12T20:58:52.197Z,18.2
2023-04-12T21:01:49.010Z,10.959999999999999
2023-04-12T21:04:46.430Z,10.34
2023-04-12T21:07:42.882Z,14.74
2023-04-12T21:10:40.449Z,13.960000000000003
2023-04-12T21:13:36.001Z,11.940000000000001
2023-04-12T21:16:33.639Z,12.459999999999999
2023-04-12T21:19:30.150Z,15.98
2023-04-12T21:22:26.749Z,10.780000000000001
2023-04-12T21:25:22.264Z,15.919999999999998
2023-04-12T21:28:20.811Z,17.98
2023-04-12T21:31:18.386Z,16.699999999999996
2023-04-12T21:34:13.931Z,11.14
2023-04-12T21:37:10.469Z,15.120000000000001
2023-04-12T21:40:09.067Z,16.3
2023-04-12T21:43:07.578Z,10.86
2023-04-12T21:46:03.180Z,11.239999999999998
2023-04-12T21:48:59.974Z,11.4
2023-04-12T21:51:59.321Z,9.82
2023-04-12T21:54:55.876Z,10.419999999999998
2023-04-12T21:57:52.379Z,10.68
2023-04-12T22:00:49.983Z,10.220000000000002
2023-04-12T22:03:46.609Z,11.36
2023-04-12T22:06:44.057Z,9.04
2023-04-12T22:09:39.619Z,9.440000000000001
2023-04-12T22:12:40.172Z,9.48
2023-04-12T22:15:36.728Z,13.64
2023-04-12T22:18:34.293Z,10.38
2023-04-12T22:21:32.854Z,28.919999999999998
2023-04-12T22:24:30.387Z,14.8
2023-04-12T22:27:29.933Z,10.88
2023-04-12T22:30:25.501Z,12.64
2023-04-12T22:33:22.061Z,10.64
2023-04-12T22:36:18.626Z,6.62
2023-04-12T22:39:15.188Z,6.76
2023-04-12T22:42:20.742Z,9.48
2023-04-12T22:45:17.284Z,8.680000000000001
2023-04-12T22:48:14.833Z,10.1
2023-04-12T22:51:10.367Z,11.48
2023-04-12T22:54:08.947Z,11.819999999999999
2023-04-12T22:57:05.503Z,10.26
2023-04-12T23:00:01.064Z,13.319999999999999
2023-04-12T23:02:56.658Z,12.7
2023-04-12T23:05:55.200Z,14.4
2023-04-12T23:08:51.741Z,11.599999999999998
2023-04-12T23:11:48.303Z,12.820000000000002
2023-04-12T23:14:45.867Z,12.739999999999998
2023-04-12T23:17:42.488Z,11.239999999999998
2023-04-12T23:20:44.971Z,12.440000000000001
2023-04-12T23:23:42.505Z,8.360000000000001
2023-04-12T23:26:38.036Z,8
2023-04-12T23:29:34.642Z,7.12
2023-04-12T23:32:31.261Z,8.180000000000001
2023-04-12T23:35:26.735Z,6.42
2023-04-12T23:38:31.285Z,7.76
2023-04-12T23:41:27.882Z,7.18
2023-04-12T23:44:27.393Z,9.72
2023-04-12T23:47:23.948Z,12.260000000000002
2023-04-12T23:50:20.539Z,12.319999999999999
2023-04-12T23:53:17.039Z,8.84
2023-04-12T23:56:13.633Z,8.5
2023-04-12T23:59:09.225Z,9.059999999999999
